Terminal Aerodrome Forecast
Issued by NWS

Home | Current Version | Previous Version | Graphics & Text | Print | Product List | Glossary On
Versions: 1 2 3 4 5 6 7 8 9 10 11 12 13 14 15 16 17 18
000
FTUS43 KMPX 241700
TAFRWF
TAF
KRWF 241720Z 2418/2518 16013G21KT P6SM SCT100 BKN200
     FM242100 16013G21KT P6SM -SHRA BKN050 OVC100
      TEMPO 2421/2424 5SM -TSRA BKN040CB
     FM250100 15012KT P6SM SCT050 BKN100
     FM250300 15012KT P6SM -SHRA BKN050 PROB30 2504/2508 -TSRA
      OVC040CB
     FM251000 17010KT P6SM SCT025 BKN050=

USA.gov is the U.S. government's official web portal to all federal, state and local government web resources and services.